createdAt,value
2022-11-25T00:01:48.972Z,7.50
2022-11-25T00:07:42.160Z,7.40
2022-11-25T00:13:37.692Z,7.40
2022-11-25T00:19:31.327Z,7.40
2022-11-25T00:25:24.760Z,7.40
2022-11-25T00:31:21.068Z,7.30
2022-11-25T00:37:14.557Z,7.20
2022-11-25T00:43:27.512Z,7.30
2022-11-25T00:49:22.583Z,7.20
2022-11-25T00:55:16.068Z,7.10
2022-11-25T01:01:11.312Z,7.00
2022-11-25T01:07:21.392Z,7.20
2022-11-25T01:13:14.870Z,7.30
2022-11-25T01:19:08.514Z,7.30
2022-11-25T01:25:03.429Z,7.40
2022-11-25T01:31:01.830Z,7.40
2022-11-25T01:36:54.847Z,7.40
2022-11-25T01:42:51.791Z,7.40
2022-11-25T01:48:51.534Z,7.20
2022-11-25T01:54:50.846Z,7.00
2022-11-25T02:00:51.807Z,7.30
2022-11-25T02:06:52.312Z,7.30
2022-11-25T02:12:48.571Z,7.30
2022-11-25T02:18:43.703Z,7.30
2022-11-25T02:24:44.476Z,7.40
2022-11-25T02:30:40.975Z,7.40
2022-11-25T02:36:35.677Z,7.30
2022-11-25T02:42:30.911Z,7.30
2022-11-25T02:48:52.722Z,7.30
2022-11-25T02:54:40.775Z,7.30
2022-11-25T03:00:34.339Z,7.30
2022-11-25T03:06:29.634Z,7.30
2022-11-25T03:12:23.201Z,7.20
2022-11-25T03:18:19.826Z,7.10
2022-11-25T03:24:15.739Z,7.20
2022-11-25T03:30:12.115Z,6.70
2022-11-25T03:36:06.644Z,6.80
2022-11-25T03:42:01.149Z,6.90
2022-11-25T03:47:54.273Z,6.90
2022-11-25T03:53:48.003Z,6.90
2022-11-25T03:59:43.290Z,6.90
2022-11-25T04:05:36.928Z,6.90
2022-11-25T04:11:47.225Z,6.90
2022-11-25T04:17:41.716Z,6.70
2022-11-25T04:23:34.864Z,6.90
2022-11-25T04:29:32.173Z,6.70
2022-11-25T04:35:30.474Z,6.70
2022-11-25T04:41:24.428Z,6.70
2022-11-25T04:47:18.112Z,6.80
2022-11-25T04:53:13.191Z,6.90
2022-11-25T04:59:24.279Z,7.00
2022-11-25T05:05:19.497Z,6.90
2022-11-25T05:11:14.198Z,6.90
2022-11-25T05:17:08.511Z,6.70
2022-11-25T05:23:02.114Z,6.70
2022-11-25T05:28:58.064Z,6.70
2022-11-25T05:34:51.527Z,6.60
2022-11-25T05:40:45.236Z,6.60
2022-11-25T05:46:42.492Z,6.80
2022-11-25T05:52:36.670Z,6.90
2022-11-25T05:58:32.233Z,6.90
2022-11-25T06:04:28.605Z,7.00
2022-11-25T06:10:21.907Z,6.90
2022-11-25T06:16:17.527Z,6.90
2022-11-25T06:29:41.474Z,6.90
2022-11-25T06:35:34.638Z,6.90
2022-11-25T06:41:29.872Z,6.90
2022-11-25T06:47:24.341Z,6.90
2022-11-25T06:53:23.863Z,7.00
2022-11-25T06:59:17.255Z,6.90
2022-11-25T07:05:11.775Z,6.80
2022-11-25T07:11:07.211Z,6.80
2022-11-25T07:17:00.279Z,6.80
2022-11-25T07:22:54.727Z,6.80
2022-11-25T07:28:48.238Z,6.90
2022-11-25T07:34:41.872Z,6.90
2022-11-25T07:40:36.380Z,6.90
2022-11-25T07:46:33.149Z,6.80
2022-11-25T07:52:27.025Z,6.80
2022-11-25T07:58:22.073Z,6.80
2022-11-25T08:04:20.234Z,6.90
2022-11-25T08:10:14.504Z,6.80
2022-11-25T08:16:09.583Z,6.80
2022-11-25T08:22:02.698Z,6.90
2022-11-25T08:27:55.697Z,6.70
2022-11-25T08:33:51.213Z,6.80
2022-11-25T08:39:52.353Z,6.90
2022-11-25T08:45:46.989Z,6.90
2022-11-25T08:51:41.876Z,7.00
2022-11-25T08:57:35.566Z,7.10
2022-11-25T09:03:29.261Z,7.10
2022-11-25T09:09:24.192Z,7.10
2022-11-25T09:15:17.787Z,7.20
2022-11-25T09:21:13.558Z,7.10
2022-11-25T09:27:08.540Z,7.20
2022-11-25T09:33:01.570Z,7.30
2022-11-25T09:38:54.680Z,7.00
2022-11-25T09:45:22.121Z,6.90
2022-11-25T09:51:21.947Z,7.10
2022-11-25T09:57:25.047Z,6.90
2022-11-25T10:03:32.454Z,7.00
2022-11-25T10:09:28.371Z,6.90
2022-11-25T10:15:27.787Z,7.10
2022-11-25T10:21:22.194Z,6.80
2022-11-25T10:27:20.378Z,6.90
2022-11-25T10:33:19.274Z,7.00
2022-11-25T10:39:19.087Z,7.20
2022-11-25T10:45:14.319Z,7.20
2022-11-25T10:51:20.380Z,7.10
2022-11-25T10:57:20.574Z,7.10
2022-11-25T11:03:17.618Z,6.80
2022-11-25T11:09:33.521Z,7.00
2022-11-25T11:15:30.547Z,7.00
2022-11-25T11:21:30.063Z,7.10
2022-11-25T11:27:26.163Z,7.10
2022-11-25T11:33:32.628Z,7.30
2022-11-25T11:39:38.194Z,7.10
2022-11-25T11:45:49.141Z,7.30
2022-11-25T11:51:52.307Z,7.30
2022-11-25T11:57:52.654Z,7.40
2022-11-25T12:03:57.489Z,7.40
2022-11-25T12:09:56.415Z,7.10
2022-11-25T12:15:56.514Z,7.20
2022-11-25T12:21:56.709Z,7.10
2022-11-25T12:27:58.695Z,7.20
2022-11-25T12:33:59.603Z,7.30
2022-11-25T12:39:58.672Z,7.40
2022-11-25T12:46:04.401Z,7.60
2022-11-25T12:52:17.278Z,7.60
2022-11-25T12:58:39.036Z,7.50
2022-11-25T13:05:18.477Z,7.60
2022-11-25T13:11:31.201Z,7.80
2022-11-25T13:17:26.626Z,7.80
2022-11-25T13:23:49.329Z,7.80
2022-11-25T13:30:01.783Z,7.80
2022-11-25T13:35:56.525Z,7.80
2022-11-25T13:42:01.363Z,7.90
2022-11-25T13:47:56.740Z,7.80
2022-11-25T13:53:55.278Z,7.80
2022-11-25T13:59:56.235Z,7.70
2022-11-25T14:06:05.011Z,7.70
2022-11-25T14:12:20.745Z,7.70
2022-11-25T14:25:01.992Z,7.80
2022-11-25T14:31:01.325Z,7.70
2022-11-25T14:37:02.335Z,7.70
2022-11-25T14:43:03.934Z,7.80
2022-11-25T14:48:59.299Z,7.70
2022-11-25T14:54:57.044Z,7.70
2022-11-25T15:01:00.889Z,7.80
2022-11-25T15:06:57.263Z,7.80
2022-11-25T15:12:53.807Z,8.10
2022-11-25T15:18:50.105Z,7.90
2022-11-25T15:24:50.177Z,7.90
2022-11-25T15:30:58.572Z,8.00
2022-11-25T15:36:54.389Z,8.10
2022-11-25T15:42:48.391Z,7.90
2022-11-25T15:48:46.715Z,8.00
2022-11-25T15:54:42.951Z,8.10
2022-11-25T16:00:35.978Z,8.10
2022-11-25T16:06:31.251Z,8.00
2022-11-25T16:12:24.311Z,8.00
2022-11-25T16:18:39.120Z,8.00
2022-11-25T16:33:11.098Z,7.90
2022-11-25T16:39:06.084Z,8.00
2022-11-25T16:45:01.797Z,8.20
2022-11-25T16:50:55.292Z,8.20
2022-11-25T16:56:52.613Z,8.40
2022-11-25T17:02:46.173Z,8.20
2022-11-25T17:08:39.896Z,8.30
2022-11-25T17:14:38.118Z,8.20
2022-11-25T17:20:31.355Z,8.20
2022-11-25T17:26:30.427Z,8.10
2022-11-25T17:32:25.896Z,8.10
2022-11-25T17:38:21.552Z,8.20
2022-11-25T17:44:26.046Z,8.30
2022-11-25T17:50:23.118Z,8.30
2022-11-25T17:56:26.812Z,8.30
2022-11-25T18:02:22.594Z,8.40
2022-11-25T18:08:17.607Z,8.40
2022-11-25T18:14:14.564Z,8.40
2022-11-25T18:20:17.381Z,8.50
2022-11-25T18:26:13.191Z,8.50
2022-11-25T18:32:06.426Z,8.40
2022-11-25T18:38:00.147Z,8.20
2022-11-25T18:43:55.294Z,8.20
2022-11-25T18:49:53.833Z,8.20
2022-11-25T18:55:50.120Z,8.20
2022-11-25T19:01:49.587Z,8.20
2022-11-25T19:07:43.733Z,8.30
2022-11-25T19:13:37.925Z,8.50
2022-11-25T19:19:32.597Z,8.30
2022-11-25T19:25:26.622Z,8.30
2022-11-25T19:31:21.393Z,8.40
2022-11-25T19:37:19.965Z,8.50
2022-11-25T19:43:13.030Z,8.60
2022-11-25T19:49:07.046Z,8.70
2022-11-25T19:55:01.989Z,8.70
2022-11-25T20:00:57.066Z,8.60
2022-11-25T20:06:51.214Z,8.70
2022-11-25T20:12:46.482Z,8.70
2022-11-25T20:18:41.056Z,8.80
2022-11-25T20:24:34.882Z,8.90
2022-11-25T20:30:31.234Z,8.90
2022-11-25T20:36:33.458Z,8.90
2022-11-25T20:42:27.732Z,8.90
2022-11-25T20:48:22.776Z,8.80
2022-11-25T20:54:17.650Z,8.90
2022-11-25T21:00:19.525Z,8.90
2022-11-25T21:06:27.907Z,8.80
2022-11-25T21:12:21.461Z,8.90
2022-11-25T21:18:15.150Z,8.90
2022-11-25T21:24:21.071Z,8.90
2022-11-25T21:30:20.102Z,9.00
2022-11-25T21:36:19.238Z,9.00
2022-11-25T21:42:20.885Z,9.00
2022-11-25T21:48:20.170Z,9.00
2022-11-25T21:54:13.255Z,9.00
2022-11-25T22:00:21.387Z,9.10
2022-11-25T22:06:21.216Z,9.10
2022-11-25T22:12:27.422Z,9.10
2022-11-25T22:18:29.264Z,9.10
2022-11-25T22:24:23.832Z,9.10
2022-11-25T22:30:19.408Z,9.10
2022-11-25T22:36:31.673Z,9.10
2022-11-25T22:42:28.767Z,9.10
2022-11-25T22:48:27.989Z,9.00
2022-11-25T22:54:24.002Z,9.00
2022-11-25T23:00:20.770Z,9.00
2022-11-25T23:06:15.905Z,8.90
2022-11-25T23:12:14.081Z,8.90
2022-11-25T23:18:15.285Z,8.80
2022-11-25T23:24:13.963Z,8.80
2022-11-25T23:30:10.748Z,8.70
2022-11-25T23:36:08.836Z,8.70
2022-11-25T23:42:02.804Z,8.60
2022-11-25T23:47:57.879Z,8.60
2022-11-25T23:53:52.670Z,8.50
2022-11-25T23:59:46.027Z,8.40
